Terminal Aerodrome Forecast
Issued by NWS Charleston, WV

Current Version | Previous Version | Graphics & Text | Print | Product List | Glossary On
Versions: 1 2 3 4 5 6 7 8 9 10 11 12 13 14 15 16 17 18 19 20 21 22 23
000
FTUS41 KRLX 212300
TAFCRW
TAF
KCRW 212334Z 2200/2224 VRB03KT P6SM BKN035
     FM221200 22004KT 6SM -SHRA OVC030
     FM221400 26006KT 5SM -SHRA OVC030
     FM221800 26007KT P6SM BKN040
     FM222000 30010G15KT P6SM BKN080=

USA.gov is the U.S. government's official web portal to all federal, state and local government web resources and services.